createdAt,value
2022-10-28T00:01:10.499Z,14.82
2022-10-28T00:03:45.431Z,14.95
2022-10-28T00:06:15.217Z,14.88
2022-10-28T00:08:42.917Z,14.80
2022-10-28T00:11:15.807Z,14.93
2022-10-28T00:13:43.582Z,14.69
2022-10-28T00:16:28.454Z,14.91
2022-10-28T00:18:55.490Z,14.79
2022-10-28T00:21:25.336Z,14.72
2022-10-28T00:23:52.754Z,14.55
2022-10-28T00:26:22.700Z,14.76
2022-10-28T00:28:51.899Z,14.65
2022-10-28T00:31:20.861Z,14.81
2022-10-28T00:33:47.884Z,14.59
2022-10-28T00:36:21.753Z,14.86
2022-10-28T00:38:50.241Z,14.84
2022-10-28T00:41:20.217Z,14.94
2022-10-28T00:43:52.494Z,14.68
2022-10-28T00:46:37.476Z,14.80
2022-10-28T00:49:12.286Z,14.76
2022-10-28T00:51:39.845Z,14.43
2022-10-28T00:54:07.437Z,14.66
2022-10-28T00:56:40.557Z,14.57
2022-10-28T00:59:13.415Z,14.64
2022-10-28T01:01:40.267Z,14.56
2022-10-28T01:04:08.445Z,14.46
2022-10-28T01:06:35.418Z,14.57
2022-10-28T01:09:02.078Z,14.35
2022-10-28T01:12:03.138Z,14.56
2022-10-28T01:14:54.414Z,14.56
2022-10-28T01:17:50.416Z,14.63
2022-10-28T01:21:08.381Z,14.60
2022-10-28T01:23:37.882Z,14.65
2022-10-28T01:26:38.122Z,14.63
2022-10-28T01:29:23.548Z,14.55
2022-10-28T01:31:55.102Z,14.50
2022-10-28T01:34:27.600Z,14.63
2022-10-28T01:37:17.401Z,14.48
2022-10-28T01:39:49.833Z,14.71
2022-10-28T01:42:27.468Z,14.47
2022-10-28T01:45:06.772Z,14.71
2022-10-28T01:47:58.381Z,14.64
2022-10-28T01:50:35.908Z,14.75
2022-10-28T01:53:09.744Z,14.69
2022-10-28T01:55:43.137Z,14.71
2022-10-28T01:58:13.624Z,14.62
2022-10-28T02:00:43.120Z,14.55
2022-10-28T02:03:10.480Z,14.85
2022-10-28T02:05:53.214Z,14.69
2022-10-28T02:08:41.767Z,14.74
2022-10-28T02:11:39.339Z,14.81
2022-10-28T02:14:18.115Z,14.87
2022-10-28T02:16:59.471Z,14.72
2022-10-28T02:19:54.293Z,15.00
2022-10-28T02:22:27.295Z,14.77
2022-10-28T02:25:09.250Z,15.03
2022-10-28T02:27:45.071Z,14.59
2022-10-28T02:30:15.411Z,15.09
2022-10-28T02:32:47.003Z,14.98
2022-10-28T02:35:21.018Z,14.87
2022-10-28T02:37:50.684Z,14.94
2022-10-28T02:40:24.260Z,14.85
2022-10-28T02:42:55.953Z,14.80
2022-10-28T02:45:28.501Z,14.78
2022-10-28T02:48:00.122Z,14.60
2022-10-28T02:50:33.754Z,14.96
2022-10-28T02:53:04.717Z,14.55
2022-10-28T02:55:38.402Z,14.80
2022-10-28T02:58:06.064Z,14.65
2022-10-28T03:00:32.794Z,14.60
2022-10-28T03:02:59.674Z,14.50
2022-10-28T03:05:26.297Z,14.68
2022-10-28T03:08:01.416Z,14.55
2022-10-28T03:10:28.213Z,14.40
2022-10-28T03:13:01.330Z,14.58
2022-10-28T03:15:28.017Z,14.44
2022-10-28T03:17:54.961Z,14.45
2022-10-28T03:20:21.885Z,14.36
2022-10-28T03:22:48.510Z,13.99
2022-10-28T03:25:15.272Z,14.05
2022-10-28T03:27:41.953Z,13.89
2022-10-28T03:30:09.067Z,14.22
2022-10-28T03:32:35.802Z,14.13
2022-10-28T03:35:02.547Z,14.02
2022-10-28T03:37:29.218Z,13.91
2022-10-28T03:39:55.911Z,13.79
2022-10-28T03:42:22.611Z,13.74
2022-10-28T03:44:49.336Z,13.58
2022-10-28T03:47:16.041Z,13.76
2022-10-28T03:49:42.824Z,13.85
2022-10-28T03:52:09.552Z,13.91
2022-10-28T03:54:36.237Z,14.04
2022-10-28T03:57:03.100Z,13.83
2022-10-28T03:59:29.769Z,13.85
2022-10-28T04:01:56.639Z,13.75
2022-10-28T04:04:27.154Z,13.70
2022-10-28T04:06:56.527Z,14.02
2022-10-28T04:09:23.247Z,13.76
2022-10-28T04:11:49.935Z,13.56
2022-10-28T04:14:16.651Z,13.83
2022-10-28T04:16:43.335Z,13.97
2022-10-28T04:19:10.037Z,14.08
2022-10-28T04:21:36.704Z,13.94
2022-10-28T04:24:03.477Z,14.23
2022-10-28T04:26:32.012Z,14.22
2022-10-28T04:28:58.756Z,14.08
2022-10-28T04:31:25.404Z,14.11
2022-10-28T04:33:52.149Z,14.33
2022-10-28T04:36:19.287Z,14.32
2022-10-28T04:38:45.991Z,14.03
2022-10-28T04:41:14.757Z,14.12
2022-10-28T04:43:41.401Z,13.97
2022-10-28T04:46:08.349Z,13.71
2022-10-28T04:48:35.444Z,13.83
2022-10-28T04:51:02.452Z,13.94
2022-10-28T04:53:29.177Z,13.75
2022-10-28T04:55:59.718Z,13.84
2022-10-28T04:58:27.177Z,13.78
2022-10-28T05:00:53.937Z,13.81
2022-10-28T05:03:20.706Z,13.70
2022-10-28T05:05:48.644Z,13.70
2022-10-28T05:08:23.786Z,13.69
2022-10-28T05:10:51.237Z,13.52
2022-10-28T05:13:19.076Z,13.50
2022-10-28T05:15:48.574Z,13.62
2022-10-28T05:18:15.858Z,13.59
2022-10-28T05:20:42.643Z,13.43
2022-10-28T05:23:09.653Z,13.57
2022-10-28T05:25:36.385Z,13.61
2022-10-28T05:28:03.064Z,13.44
2022-10-28T05:30:29.756Z,13.49
2022-10-28T05:33:03.859Z,13.67
2022-10-28T05:35:30.814Z,13.70
2022-10-28T05:37:57.984Z,13.64
2022-10-28T05:40:25.034Z,13.72
2022-10-28T05:42:51.927Z,13.67
2022-10-28T05:45:19.105Z,13.74
2022-10-28T05:47:47.801Z,13.88
2022-10-28T05:50:17.395Z,13.78
2022-10-28T05:52:48.831Z,13.81
2022-10-28T05:55:16.729Z,13.77
2022-10-28T05:57:43.503Z,13.88
2022-10-28T06:00:11.002Z,13.61
2022-10-28T06:02:39.605Z,13.89
2022-10-28T06:05:06.604Z,13.50
2022-10-28T06:07:34.932Z,13.69
2022-10-28T06:15:24.482Z,13.89
2022-10-28T06:17:51.335Z,13.74
2022-10-28T06:23:00.100Z,13.77
2022-10-28T06:41:37.788Z,13.25
2022-10-28T06:44:04.691Z,13.21
2022-10-28T06:46:33.093Z,13.28
2022-10-28T06:49:03.240Z,13.24
2022-10-28T06:51:31.388Z,13.30
2022-10-28T06:53:58.814Z,13.66
2022-10-28T06:56:25.649Z,13.74
2022-10-28T06:58:54.467Z,13.41
2022-10-28T07:01:22.221Z,13.50
2022-10-28T07:03:49.286Z,13.50
2022-10-28T07:06:17.217Z,13.89
2022-10-28T07:08:43.992Z,13.66
2022-10-28T07:11:11.997Z,13.75
2022-10-28T07:13:38.751Z,13.76
2022-10-28T07:16:06.580Z,13.88
2022-10-28T07:18:33.353Z,13.64
2022-10-28T07:21:01.800Z,13.82
2022-10-28T07:23:32.859Z,13.72
2022-10-28T07:26:03.199Z,13.47
2022-10-28T07:28:30.447Z,13.74
2022-10-28T07:31:06.172Z,13.76
2022-10-28T07:47:08.773Z,13.97
2022-10-28T07:49:40.117Z,13.67
2022-10-28T07:52:09.409Z,14.03
2022-10-28T07:54:36.317Z,13.98
2022-10-28T07:57:03.564Z,13.75
2022-10-28T07:59:30.771Z,13.96
2022-10-28T08:07:24.362Z,14.05
2022-10-28T08:09:53.270Z,13.80
2022-10-28T08:12:20.596Z,14.10
2022-10-28T08:14:47.691Z,13.94
2022-10-28T08:17:16.358Z,13.29
2022-10-28T08:19:44.194Z,13.90
2022-10-28T08:22:11.342Z,13.97
2022-10-28T08:24:38.110Z,14.00
2022-10-28T08:27:06.396Z,14.11
2022-10-28T08:29:33.334Z,14.02
2022-10-28T08:32:00.547Z,14.05
2022-10-28T08:34:30.099Z,14.41
2022-10-28T08:36:57.934Z,14.37
2022-10-28T08:39:25.021Z,14.19
2022-10-28T08:42:04.417Z,14.21
2022-10-28T08:44:49.730Z,14.22
2022-10-28T08:47:41.133Z,14.09
2022-10-28T08:50:18.842Z,14.16
2022-10-28T08:52:57.353Z,14.30
2022-10-28T08:55:34.118Z,14.28
2022-10-28T08:58:08.758Z,14.48
2022-10-28T09:00:48.974Z,14.03
2022-10-28T09:03:23.340Z,14.15
2022-10-28T09:06:05.630Z,14.15
2022-10-28T09:08:36.924Z,14.04
2022-10-28T09:11:26.348Z,14.47
2022-10-28T09:14:04.581Z,14.22
2022-10-28T09:16:37.269Z,14.49
2022-10-28T09:19:35.205Z,14.42
2022-10-28T09:22:07.986Z,14.46
2022-10-28T09:24:53.097Z,14.12
2022-10-28T09:27:24.870Z,14.14
2022-10-28T09:30:14.488Z,14.10
2022-10-28T09:32:49.153Z,14.42
2022-10-28T09:35:19.463Z,14.51
2022-10-28T09:37:52.748Z,14.49
2022-10-28T09:40:26.095Z,14.37
2022-10-28T09:42:55.796Z,14.55
2022-10-28T09:45:27.561Z,14.28
2022-10-28T09:48:00.612Z,14.16
2022-10-28T09:50:31.550Z,14.16
2022-10-28T09:53:36.293Z,14.38
2022-10-28T09:56:04.816Z,14.29
2022-10-28T09:58:33.399Z,14.48
2022-10-28T10:01:00.836Z,14.25
2022-10-28T10:03:27.664Z,14.30
2022-10-28T10:05:57.226Z,14.43
2022-10-28T10:08:24.367Z,14.19
2022-10-28T10:10:56.783Z,14.40
2022-10-28T10:13:44.007Z,14.31
2022-10-28T10:16:25.383Z,14.28
2022-10-28T10:18:57.788Z,14.45
2022-10-28T10:21:43.426Z,14.28
2022-10-28T10:24:36.144Z,14.49
2022-10-28T10:27:11.741Z,14.61
2022-10-28T10:29:45.770Z,14.38
2022-10-28T10:32:28.643Z,14.23
2022-10-28T10:35:04.535Z,14.52
2022-10-28T10:37:36.587Z,14.27
2022-10-28T10:43:21.329Z,14.39
2022-10-28T10:46:18.910Z,14.66
2022-10-28T10:48:47.295Z,14.60
2022-10-28T10:51:28.057Z,14.57
2022-10-28T10:54:02.652Z,14.76
2022-10-28T10:56:35.319Z,14.90
2022-10-28T11:01:47.591Z,14.53
2022-10-28T11:27:27.308Z,15.57
2022-10-28T11:50:10.611Z,16.11
2022-10-28T12:08:05.587Z,15.54
2022-10-28T13:03:16.650Z,15.70
2022-10-28T19:17:37.864Z,12.58
2022-10-28T19:20:04.921Z,12.48
2022-10-28T19:22:31.854Z,12.85
2022-10-28T19:25:00.004Z,12.74
2022-10-28T19:27:26.768Z,12.31
2022-10-28T19:29:53.609Z,12.41
2022-10-28T19:32:20.452Z,12.03
2022-10-28T19:34:47.232Z,12.14
2022-10-28T19:37:14.468Z,12.50
2022-10-28T19:39:41.535Z,11.98
2022-10-28T19:42:08.261Z,12.49
2022-10-28T19:44:35.188Z,12.47
2022-10-28T19:47:02.120Z,12.55
2022-10-28T19:49:35.036Z,12.63
2022-10-28T19:52:04.200Z,12.63
2022-10-28T19:54:31.185Z,12.56
2022-10-28T19:56:59.192Z,12.47
2022-10-28T19:59:25.971Z,12.63
2022-10-28T20:01:52.779Z,12.72
2022-10-28T20:04:21.674Z,12.35
2022-10-28T20:10:36.956Z,12.87
2022-10-28T20:13:03.819Z,12.90
2022-10-28T20:15:30.607Z,12.87
2022-10-28T20:17:57.779Z,13.00
2022-10-28T20:20:24.611Z,12.71
2022-10-28T20:22:51.452Z,12.58
2022-10-28T20:25:18.403Z,12.73
2022-10-28T20:27:45.189Z,12.42
2022-10-28T20:30:12.644Z,13.04
2022-10-28T20:32:39.391Z,12.43
2022-10-28T20:35:06.640Z,12.90
2022-10-28T20:37:33.439Z,13.01
2022-10-28T20:40:04.402Z,12.64
2022-10-28T20:42:34.356Z,13.10
2022-10-28T20:45:01.267Z,13.14
2022-10-28T20:47:28.182Z,13.32
2022-10-28T20:49:57.446Z,12.45
2022-10-28T20:54:50.970Z,13.07
2022-10-28T20:57:17.784Z,12.31
2022-10-28T20:59:44.553Z,12.50
2022-10-28T21:02:11.895Z,12.43
2022-10-28T21:04:39.325Z,13.14
2022-10-28T21:07:06.240Z,12.73
2022-10-28T21:09:36.429Z,12.52
2022-10-28T21:12:05.073Z,12.53
2022-10-28T21:14:41.210Z,12.46
2022-10-28T21:17:08.568Z,13.51
2022-10-28T21:19:35.891Z,13.13
2022-10-28T21:22:03.207Z,12.75
2022-10-28T21:24:30.756Z,13.37
2022-10-28T21:26:57.562Z,13.02
2022-10-28T21:29:26.987Z,12.83
2022-10-28T21:31:54.293Z,13.78
2022-10-28T21:34:21.510Z,12.99
2022-10-28T21:36:48.996Z,13.37
2022-10-28T21:39:16.602Z,12.88
2022-10-28T21:41:43.901Z,13.03
2022-10-28T21:44:10.986Z,13.02
2022-10-28T21:46:37.833Z,13.54
2022-10-28T21:49:04.889Z,13.31
2022-10-28T21:51:31.671Z,13.40
2022-10-28T21:53:58.419Z,13.18
2022-10-28T21:56:25.430Z,13.13
2022-10-28T21:58:52.255Z,12.80
2022-10-28T22:01:23.387Z,13.64
2022-10-28T22:03:52.044Z,13.03
2022-10-28T22:06:18.916Z,13.27
2022-10-28T22:08:47.047Z,13.27
2022-10-28T22:11:19.941Z,12.70
2022-10-28T22:13:48.116Z,13.03
2022-10-28T22:16:17.735Z,12.81
2022-10-28T22:18:45.885Z,13.48
2022-10-28T22:21:15.999Z,12.90
2022-10-28T22:23:43.419Z,12.77
2022-10-28T22:26:15.839Z,12.90
2022-10-28T22:28:43.158Z,13.10
2022-10-28T22:31:12.857Z,13.13
2022-10-28T22:33:40.019Z,12.54
2022-10-28T22:36:09.536Z,13.13
2022-10-28T22:38:36.793Z,12.91
2022-10-28T22:41:14.668Z,13.09
2022-10-28T22:43:43.239Z,12.25
2022-10-28T22:46:11.248Z,11.96
2022-10-28T22:48:38.910Z,12.47
2022-10-28T22:51:05.938Z,12.00
2022-10-28T22:53:33.161Z,12.46
2022-10-28T22:56:00.162Z,12.22
2022-10-28T22:58:28.130Z,11.93
2022-10-28T23:01:07.321Z,11.98
2022-10-28T23:03:41.557Z,11.97
2022-10-28T23:06:10.545Z,11.91
2022-10-28T23:08:39.104Z,11.92
2022-10-28T23:11:07.018Z,11.95
2022-10-28T23:13:34.492Z,12.80
2022-10-28T23:16:07.669Z,12.35
2022-10-28T23:18:35.271Z,11.84
2022-10-28T23:21:10.746Z,11.85
2022-10-28T23:23:37.684Z,12.56
2022-10-28T23:26:04.880Z,11.96
2022-10-28T23:28:31.706Z,11.66
2022-10-28T23:31:06.194Z,12.34
2022-10-28T23:33:35.019Z,11.99
2022-10-28T23:36:04.078Z,12.19
2022-10-28T23:38:34.134Z,12.03
2022-10-28T23:41:03.402Z,11.61
2022-10-28T23:43:31.760Z,12.19
2022-10-28T23:45:58.706Z,12.16
2022-10-28T23:48:26.399Z,12.40
2022-10-28T23:50:53.431Z,11.68
2022-10-28T23:53:20.971Z,11.62
2022-10-28T23:55:49.405Z,12.54
2022-10-28T23:58:17.640Z,12.39
